BEL3HE LPPT-EBBR
Flight info
| Callsign | BEL3HE |
|---|---|
| Flight time | 2h 15m |
| Altitude | 34000 |
| Route | IXIDA DCT TOSDI/N0450F360 N745 ZMR N873 DELOG DCT YURZI DCT OLEBA UN873 BAZOS DCT BELDI DCT VEKIN/N0429F260 Z173 ARVOL |
| Aircraft | A320/M-SDE3FGHIRWY/LB1 |
Departure
| Time | 2026-05-06 15:18 |
|---|---|
| Airport | Lisbon Humberto Delgado Airport (LPPT) |
Arrival
| Time | 2026-05-06 17:33 |
|---|---|
| Airport | Brussels Airport (EBBR) |
| Time | Latitude | Longitude | Altitude | Speed | Heading |
|---|---|---|---|---|---|
| 2026-05-06 14:24 | 38.76892 | -9.13053 | 337 ft | 0 kts | 78° |
| 2026-05-06 15:03 | 38.76889 | -9.13071 | 333 ft | 3 kts | 81° |
| 2026-05-06 15:03 | 38.76886 | -9.13097 | 334 ft | 3 kts | 90° |
| 2026-05-06 15:03 | 38.76888 | -9.13122 | 334 ft | 3 kts | 109° |
| 2026-05-06 15:03 | 38.76896 | -9.13141 | 333 ft | 3 kts | 153° |
| 2026-05-06 15:04 | 38.76903 | -9.13145 | 333 ft | 0 kts | 168° |
| 2026-05-06 15:09 | 38.76902 | -9.13145 | 339 ft | 2 kts | 168° |
| 2026-05-06 15:09 | 38.76852 | -9.13131 | 338 ft | 12 kts | 168° |
| 2026-05-06 15:10 | 38.76785 | -9.13154 | 340 ft | 1 kts | 238° |
| 2026-05-06 15:10 | 38.76780 | -9.13175 | 338 ft | 4 kts | 258° |
| 2026-05-06 15:10 | 38.76771 | -9.13226 | 336 ft | 8 kts | 257° |
| 2026-05-06 15:10 | 38.76757 | -9.13306 | 347 ft | 11 kts | 257° |
| 2026-05-06 15:11 | 38.76724 | -9.13400 | 345 ft | 13 kts | 220° |
| 2026-05-06 15:11 | 38.76654 | -9.13486 | 346 ft | 15 kts | 251° |
| 2026-05-06 15:11 | 38.76631 | -9.13635 | 348 ft | 19 kts | 259° |
| 2026-05-06 15:11 | 38.76603 | -9.13800 | 346 ft | 20 kts | 258° |
| 2026-05-06 15:12 | 38.76577 | -9.13969 | 345 ft | 21 kts | 258° |
| 2026-05-06 15:12 | 38.76557 | -9.14119 | 346 ft | 16 kts | 278° |
| 2026-05-06 15:12 | 38.76593 | -9.14236 | 335 ft | 7 kts | 291° |
| 2026-05-06 15:12 | 38.76603 | -9.14269 | 338 ft | 0 kts | 291° |
| 2026-05-06 15:15 | 38.76603 | -9.14270 | 338 ft | 1 kts | 291° |
| 2026-05-06 15:15 | 38.76620 | -9.14323 | 335 ft | 11 kts | 292° |
| 2026-05-06 15:15 | 38.76685 | -9.14367 | 337 ft | 13 kts | 15° |
| 2026-05-06 15:16 | 38.76694 | -9.14362 | 337 ft | 0 kts | 21° |
| 2026-05-06 15:17 | 38.76778 | -9.14319 | 338 ft | 39 kts | 22° |
| 2026-05-06 15:17 | 38.77237 | -9.14073 | 362 ft | 101 kts | 23° |
| 2026-05-06 15:17 | 38.78052 | -9.13633 | 366 ft | 151 kts | 22° |
| 2026-05-06 15:17 | 38.79079 | -9.13079 | 784 ft | 159 kts | 20° |
| 2026-05-06 15:18 | 38.80093 | -9.12536 | 1485 ft | 158 kts | 17° |
| 2026-05-06 15:18 | 38.81112 | -9.11993 | 2129 ft | 161 kts | 17° |
| 2026-05-06 15:18 | 38.82168 | -9.11274 | 2428 ft | 185 kts | 25° |
| 2026-05-06 15:18 | 38.83342 | -9.10373 | 2814 ft | 207 kts | 27° |
| 2026-05-06 15:19 | 38.84633 | -9.09379 | 3230 ft | 227 kts | 27° |
| 2026-05-06 15:19 | 38.86051 | -9.08284 | 3651 ft | 247 kts | 27° |
| 2026-05-06 15:19 | 38.87551 | -9.07120 | 4344 ft | 255 kts | 30° |
| 2026-05-06 15:19 | 38.89090 | -9.05918 | 5095 ft | 261 kts | 31° |
| 2026-05-06 15:20 | 38.90521 | -9.04453 | 5894 ft | 266 kts | 41° |
| 2026-05-06 15:20 | 38.91899 | -9.02845 | 6661 ft | 270 kts | 41° |
| 2026-05-06 15:20 | 38.93298 | -9.01206 | 7388 ft | 274 kts | 42° |
| 2026-05-06 15:20 | 38.94720 | -8.99539 | 8135 ft | 278 kts | 41° |
| 2026-05-06 15:21 | 38.96162 | -8.97853 | 8867 ft | 283 kts | 41° |
| 2026-05-06 15:21 | 38.97605 | -8.96115 | 9603 ft | 287 kts | 43° |
| 2026-05-06 15:21 | 38.99047 | -8.94304 | 10225 ft | 295 kts | 43° |
| 2026-05-06 15:21 | 39.00558 | -8.92373 | 10398 ft | 318 kts | 44° |
| 2026-05-06 15:22 | 39.02182 | -8.90286 | 10536 ft | 341 kts | 44° |
| 2026-05-06 15:22 | 39.03902 | -8.88080 | 10872 ft | 355 kts | 44° |
| 2026-05-06 15:22 | 39.05667 | -8.85819 | 11436 ft | 361 kts | 44° |
| 2026-05-06 15:22 | 39.07463 | -8.83523 | 12046 ft | 366 kts | 44° |
| 2026-05-06 15:23 | 39.09258 | -8.81233 | 12658 ft | 371 kts | 43° |
| 2026-05-06 15:23 | 39.11102 | -8.78879 | 13229 ft | 376 kts | 44° |
| 2026-05-06 15:23 | 39.12970 | -8.76494 | 13837 ft | 380 kts | 44° |
| 2026-05-06 15:23 | 39.14861 | -8.74081 | 14380 ft | 385 kts | 43° |
| 2026-05-06 15:24 | 39.16770 | -8.71646 | 14926 ft | 389 kts | 43° |
| 2026-05-06 15:24 | 39.18701 | -8.69176 | 15473 ft | 392 kts | 44° |
| 2026-05-06 15:24 | 39.20639 | -8.66689 | 16059 ft | 395 kts | 44° |
| 2026-05-06 15:24 | 39.22596 | -8.64178 | 16598 ft | 399 kts | 44° |
| 2026-05-06 15:25 | 39.24572 | -8.61649 | 17151 ft | 402 kts | 44° |
| 2026-05-06 15:25 | 39.26567 | -8.59096 | 17705 ft | 405 kts | 44° |
| 2026-05-06 15:25 | 39.28575 | -8.56522 | 18216 ft | 409 kts | 44° |
| 2026-05-06 15:25 | 39.30603 | -8.53918 | 18697 ft | 412 kts | 44° |
| 2026-05-06 15:26 | 39.32642 | -8.51293 | 19177 ft | 415 kts | 44° |
| 2026-05-06 15:26 | 39.34695 | -8.48643 | 19648 ft | 418 kts | 44° |
| 2026-05-06 15:26 | 39.36758 | -8.45978 | 20123 ft | 421 kts | 44° |
| 2026-05-06 15:26 | 39.38836 | -8.43295 | 20579 ft | 424 kts | 44° |
| 2026-05-06 15:27 | 39.40930 | -8.40588 | 21043 ft | 427 kts | 44° |
| 2026-05-06 15:27 | 39.43033 | -8.37867 | 21485 ft | 429 kts | 44° |
| 2026-05-06 15:27 | 39.45153 | -8.35122 | 21919 ft | 432 kts | 44° |
| 2026-05-06 15:27 | 39.47280 | -8.32365 | 22327 ft | 435 kts | 44° |
| 2026-05-06 15:28 | 39.49426 | -8.29587 | 22736 ft | 437 kts | 44° |
| 2026-05-06 15:28 | 39.51581 | -8.26796 | 23150 ft | 440 kts | 44° |
| 2026-05-06 15:28 | 39.53750 | -8.23976 | 23516 ft | 443 kts | 44° |
| 2026-05-06 15:28 | 39.55930 | -8.21138 | 23833 ft | 446 kts | 44° |
| 2026-05-06 15:29 | 39.58123 | -8.18279 | 24140 ft | 448 kts | 44° |
| 2026-05-06 15:29 | 39.60324 | -8.15410 | 24452 ft | 450 kts | 44° |
| 2026-05-06 15:29 | 39.62539 | -8.12523 | 24761 ft | 452 kts | 44° |
| 2026-05-06 15:29 | 39.64762 | -8.09623 | 25062 ft | 455 kts | 44° |
| 2026-05-06 15:30 | 39.66994 | -8.06707 | 25364 ft | 457 kts | 44° |
| 2026-05-06 15:30 | 39.69238 | -8.03771 | 25654 ft | 459 kts | 44° |
| 2026-05-06 15:30 | 39.71490 | -8.00824 | 25938 ft | 461 kts | 44° |
| 2026-05-06 15:30 | 39.73726 | -7.97896 | 26221 ft | 463 kts | 44° |
| 2026-05-06 15:31 | 39.75995 | -7.94919 | 26492 ft | 465 kts | 44° |
| 2026-05-06 15:31 | 39.78278 | -7.91922 | 26766 ft | 467 kts | 44° |
| 2026-05-06 15:31 | 39.80568 | -7.88918 | 27031 ft | 469 kts | 44° |
| 2026-05-06 15:32 | 39.85173 | -7.82858 | 27527 ft | 473 kts | 44° |
| 2026-05-06 15:32 | 39.87484 | -7.79809 | 27771 ft | 474 kts | 45° |
| 2026-05-06 15:32 | 39.89805 | -7.76742 | 28008 ft | 476 kts | 45° |
| 2026-05-06 15:32 | 39.92133 | -7.73666 | 28246 ft | 478 kts | 45° |
| 2026-05-06 15:33 | 39.94472 | -7.70575 | 28455 ft | 479 kts | 45° |
| 2026-05-06 15:33 | 39.96812 | -7.67479 | 28672 ft | 481 kts | 45° |
| 2026-05-06 15:33 | 39.99166 | -7.64361 | 28874 ft | 483 kts | 45° |
| 2026-05-06 15:33 | 40.01525 | -7.61238 | 29136 ft | 483 kts | 45° |
| 2026-05-06 15:34 | 40.03874 | -7.58128 | 29460 ft | 481 kts | 45° |
| 2026-05-06 15:34 | 40.06218 | -7.55017 | 29785 ft | 480 kts | 45° |
| 2026-05-06 15:34 | 40.08557 | -7.51908 | 30068 ft | 479 kts | 45° |
| 2026-05-06 15:34 | 40.10890 | -7.48802 | 30309 ft | 479 kts | 45° |
| 2026-05-06 15:35 | 40.13221 | -7.45693 | 30537 ft | 479 kts | 45° |
| 2026-05-06 15:35 | 40.15551 | -7.42578 | 30751 ft | 479 kts | 44° |
| 2026-05-06 15:35 | 40.17878 | -7.39462 | 30993 ft | 479 kts | 44° |
| 2026-05-06 15:35 | 40.20204 | -7.36340 | 31222 ft | 479 kts | 44° |
| 2026-05-06 15:36 | 40.22527 | -7.33218 | 31447 ft | 479 kts | 44° |
| 2026-05-06 15:36 | 40.24849 | -7.30101 | 31699 ft | 478 kts | 44° |
| 2026-05-06 15:36 | 40.27176 | -7.26983 | 31927 ft | 478 kts | 44° |
| 2026-05-06 15:36 | 40.29498 | -7.23876 | 32158 ft | 478 kts | 44° |
| 2026-05-06 15:37 | 40.31822 | -7.20765 | 32387 ft | 477 kts | 44° |
| 2026-05-06 15:37 | 40.34139 | -7.17652 | 32644 ft | 477 kts | 44° |
| 2026-05-06 15:37 | 40.36420 | -7.14579 | 32873 ft | 476 kts | 44° |
| 2026-05-06 15:37 | 40.38759 | -7.11421 | 33099 ft | 476 kts | 44° |
| 2026-05-06 15:38 | 40.41036 | -7.08346 | 33319 ft | 476 kts | 44° |
| 2026-05-06 15:38 | 40.43342 | -7.05229 | 33547 ft | 476 kts | 44° |
| 2026-05-06 15:38 | 40.45648 | -7.02109 | 33770 ft | 476 kts | 44° |
| 2026-05-06 15:38 | 40.47953 | -6.98985 | 33899 ft | 477 kts | 44° |
| 2026-05-06 15:39 | 40.52578 | -6.92711 | 33916 ft | 478 kts | 44° |
| 2026-05-06 15:39 | 40.57199 | -6.86422 | 33916 ft | 478 kts | 44° |
| 2026-05-06 15:40 | 40.61811 | -6.80131 | 33919 ft | 477 kts | 44° |
| 2026-05-06 15:40 | 40.66421 | -6.73841 | 33922 ft | 477 kts | 44° |
| 2026-05-06 15:41 | 40.71024 | -6.67550 | 33915 ft | 477 kts | 44° |
| 2026-05-06 15:41 | 40.75630 | -6.61253 | 33922 ft | 477 kts | 44° |
| 2026-05-06 15:42 | 40.80222 | -6.54938 | 33924 ft | 477 kts | 44° |
| 2026-05-06 15:42 | 40.84809 | -6.48606 | 33925 ft | 477 kts | 44° |
| 2026-05-06 15:43 | 40.89391 | -6.42276 | 33925 ft | 477 kts | 44° |
| 2026-05-06 15:43 | 40.93977 | -6.35946 | 33932 ft | 476 kts | 44° |
| 2026-05-06 15:44 | 40.98548 | -6.29620 | 33938 ft | 476 kts | 44° |
| 2026-05-06 15:44 | 41.03295 | -6.23529 | 33936 ft | 475 kts | 40° |
| 2026-05-06 15:45 | 41.08230 | -6.17808 | 33935 ft | 474 kts | 39° |
| 2026-05-06 15:45 | 41.13206 | -6.12057 | 33937 ft | 475 kts | 39° |
| 2026-05-06 15:46 | 41.18117 | -6.06201 | 33932 ft | 474 kts | 40° |
| 2026-05-06 15:46 | 41.22995 | -6.00300 | 33950 ft | 474 kts | 40° |
| 2026-05-06 15:47 | 41.27875 | -5.94413 | 33948 ft | 473 kts | 40° |
| 2026-05-06 15:47 | 41.32751 | -5.88539 | 33944 ft | 473 kts | 40° |
| 2026-05-06 15:48 | 41.37623 | -5.82661 | 33941 ft | 473 kts | 40° |
| 2026-05-06 15:48 | 41.42486 | -5.76770 | 33953 ft | 473 kts | 40° |
| 2026-05-06 15:49 | 41.47351 | -5.70876 | 33960 ft | 473 kts | 40° |
| 2026-05-06 15:49 | 41.52320 | -5.65158 | 33962 ft | 470 kts | 32° |
| 2026-05-06 15:50 | 41.58059 | -5.61145 | 33963 ft | 465 kts | 20° |
| 2026-05-06 15:50 | 41.64023 | -5.57792 | 33961 ft | 465 kts | 20° |
| 2026-05-06 15:51 | 41.67003 | -5.56110 | 34128 ft | 464 kts | 20° |
| 2026-05-06 15:51 | 41.69976 | -5.54426 | 34332 ft | 463 kts | 20° |
| 2026-05-06 15:51 | 41.72943 | -5.52745 | 34497 ft | 463 kts | 20° |
| 2026-05-06 15:51 | 41.75913 | -5.51065 | 34681 ft | 463 kts | 20° |
| 2026-05-06 15:52 | 41.78885 | -5.49387 | 34830 ft | 463 kts | 20° |
| 2026-05-06 15:52 | 41.81856 | -5.47704 | 34990 ft | 464 kts | 20° |
| 2026-05-06 15:52 | 41.84826 | -5.46019 | 35136 ft | 464 kts | 20° |
| 2026-05-06 15:52 | 41.87793 | -5.44331 | 35310 ft | 463 kts | 20° |
| 2026-05-06 15:53 | 41.90761 | -5.42637 | 35464 ft | 463 kts | 20° |
| 2026-05-06 15:53 | 41.93722 | -5.40945 | 35600 ft | 463 kts | 20° |
| 2026-05-06 15:53 | 41.96688 | -5.39250 | 35732 ft | 463 kts | 20° |
| 2026-05-06 15:53 | 41.99655 | -5.37557 | 35887 ft | 463 kts | 20° |
| 2026-05-06 15:54 | 42.05556 | -5.34196 | 35955 ft | 464 kts | 20° |
| 2026-05-06 15:54 | 42.11493 | -5.30797 | 35959 ft | 463 kts | 20° |
| 2026-05-06 15:55 | 42.17423 | -5.27387 | 35961 ft | 463 kts | 20° |
| 2026-05-06 15:55 | 42.23354 | -5.23981 | 35961 ft | 463 kts | 20° |
| 2026-05-06 15:56 | 42.29280 | -5.20561 | 35967 ft | 463 kts | 20° |
| 2026-05-06 15:56 | 42.35211 | -5.17138 | 35971 ft | 463 kts | 20° |
| 2026-05-06 15:57 | 42.41144 | -5.13710 | 35970 ft | 463 kts | 20° |
| 2026-05-06 15:57 | 42.47067 | -5.10277 | 35969 ft | 463 kts | 20° |
| 2026-05-06 15:58 | 42.52992 | -5.06835 | 35984 ft | 463 kts | 20° |
| 2026-05-06 15:58 | 42.58907 | -5.03400 | 35982 ft | 462 kts | 20° |
| 2026-05-06 15:59 | 42.64819 | -4.99954 | 35985 ft | 462 kts | 20° |
| 2026-05-06 15:59 | 42.70727 | -4.96488 | 35990 ft | 462 kts | 20° |
| 2026-05-06 16:00 | 42.76635 | -4.93026 | 35999 ft | 462 kts | 20° |
| 2026-05-06 16:00 | 42.82546 | -4.89564 | 35999 ft | 463 kts | 20° |
| 2026-05-06 16:01 | 42.88458 | -4.86088 | 36005 ft | 463 kts | 20° |
| 2026-05-06 16:01 | 42.94369 | -4.82605 | 36023 ft | 463 kts | 20° |
| 2026-05-06 16:02 | 43.00273 | -4.79108 | 36020 ft | 462 kts | 20° |
| 2026-05-06 16:02 | 43.06126 | -4.75638 | 36026 ft | 461 kts | 20° |
| 2026-05-06 16:03 | 43.12018 | -4.72146 | 36033 ft | 461 kts | 20° |
| 2026-05-06 16:03 | 43.17901 | -4.68652 | 36045 ft | 460 kts | 21° |
| 2026-05-06 16:04 | 43.22824 | -4.65715 | 36039 ft | 460 kts | 21° |
| 2026-05-06 16:04 | 43.28652 | -4.62232 | 36043 ft | 460 kts | 21° |
| 2026-05-06 16:05 | 43.34521 | -4.58716 | 36057 ft | 460 kts | 21° |
| 2026-05-06 16:05 | 43.40387 | -4.55203 | 36054 ft | 460 kts | 21° |
| 2026-05-06 16:06 | 43.46250 | -4.51693 | 36050 ft | 459 kts | 21° |
| 2026-05-06 16:06 | 43.52110 | -4.48169 | 36046 ft | 459 kts | 21° |
| 2026-05-06 16:07 | 43.57956 | -4.44638 | 36057 ft | 459 kts | 21° |
| 2026-05-06 16:07 | 43.63796 | -4.41102 | 36054 ft | 458 kts | 21° |
| 2026-05-06 16:08 | 43.69628 | -4.37571 | 36047 ft | 458 kts | 21° |
| 2026-05-06 16:08 | 43.75460 | -4.34032 | 36052 ft | 458 kts | 21° |
| 2026-05-06 16:09 | 43.81282 | -4.30489 | 36049 ft | 457 kts | 21° |
| 2026-05-06 16:09 | 43.87101 | -4.26946 | 36045 ft | 456 kts | 21° |
| 2026-05-06 16:10 | 43.92908 | -4.23398 | 36038 ft | 456 kts | 21° |
| 2026-05-06 16:10 | 43.98708 | -4.19845 | 36045 ft | 455 kts | 21° |
| 2026-05-06 16:11 | 44.04504 | -4.16288 | 36039 ft | 455 kts | 21° |
| 2026-05-06 16:11 | 44.10292 | -4.12727 | 36034 ft | 455 kts | 21° |
| 2026-05-06 16:12 | 44.16078 | -4.09159 | 36044 ft | 454 kts | 21° |
| 2026-05-06 16:12 | 44.21855 | -4.05592 | 36038 ft | 454 kts | 21° |
| 2026-05-06 16:13 | 44.27627 | -4.02028 | 36034 ft | 453 kts | 21° |
| 2026-05-06 16:13 | 44.33367 | -3.98384 | 36028 ft | 454 kts | 26° |
| 2026-05-06 16:14 | 44.38832 | -3.94061 | 36031 ft | 454 kts | 27° |
| 2026-05-06 16:14 | 44.44324 | -3.89712 | 36025 ft | 454 kts | 27° |
| 2026-05-06 16:15 | 44.49818 | -3.85366 | 36031 ft | 453 kts | 27° |
| 2026-05-06 16:15 | 44.55305 | -3.81012 | 36039 ft | 453 kts | 27° |
| 2026-05-06 16:16 | 44.60784 | -3.76647 | 36036 ft | 453 kts | 27° |
| 2026-05-06 16:16 | 44.66255 | -3.72274 | 36030 ft | 452 kts | 27° |
| 2026-05-06 16:17 | 44.71720 | -3.67900 | 36027 ft | 452 kts | 27° |
| 2026-05-06 16:17 | 44.77183 | -3.63517 | 36021 ft | 452 kts | 27° |
| 2026-05-06 16:18 | 44.82641 | -3.59122 | 36020 ft | 452 kts | 27° |
| 2026-05-06 16:18 | 44.88097 | -3.54724 | 36018 ft | 452 kts | 27° |
| 2026-05-06 16:19 | 44.93555 | -3.50320 | 36011 ft | 452 kts | 27° |
| 2026-05-06 16:19 | 44.99009 | -3.45901 | 36015 ft | 452 kts | 27° |
| 2026-05-06 16:20 | 45.04466 | -3.41477 | 36018 ft | 452 kts | 27° |
| 2026-05-06 16:20 | 45.09926 | -3.37042 | 35999 ft | 453 kts | 28° |
| 2026-05-06 16:21 | 45.15392 | -3.32587 | 36013 ft | 453 kts | 28° |
| 2026-05-06 16:21 | 45.20819 | -3.28155 | 36016 ft | 453 kts | 28° |
| 2026-05-06 16:22 | 45.26274 | -3.23690 | 36012 ft | 453 kts | 28° |
| 2026-05-06 16:22 | 45.31735 | -3.19220 | 36012 ft | 453 kts | 28° |
| 2026-05-06 16:23 | 45.37190 | -3.14731 | 36024 ft | 453 kts | 28° |
| 2026-05-06 16:23 | 45.42637 | -3.10242 | 36025 ft | 452 kts | 28° |
| 2026-05-06 16:24 | 45.48083 | -3.05753 | 36015 ft | 452 kts | 28° |
| 2026-05-06 16:24 | 45.53533 | -3.01254 | 36006 ft | 453 kts | 28° |
| 2026-05-06 16:25 | 45.58985 | -2.96736 | 36009 ft | 453 kts | 28° |
| 2026-05-06 16:25 | 45.64421 | -2.92207 | 36010 ft | 452 kts | 28° |
| 2026-05-06 16:26 | 45.69857 | -2.87669 | 35995 ft | 452 kts | 28° |
| 2026-05-06 16:26 | 45.75287 | -2.83128 | 36000 ft | 452 kts | 28° |
| 2026-05-06 16:27 | 45.80716 | -2.78588 | 36001 ft | 452 kts | 28° |
| 2026-05-06 16:27 | 45.86109 | -2.74064 | 35999 ft | 452 kts | 28° |
| 2026-05-06 16:28 | 45.91540 | -2.69500 | 35998 ft | 453 kts | 28° |
| 2026-05-06 16:28 | 45.96971 | -2.64919 | 35996 ft | 453 kts | 28° |
| 2026-05-06 16:29 | 46.02405 | -2.60323 | 35996 ft | 453 kts | 28° |
| 2026-05-06 16:29 | 46.07842 | -2.55729 | 35995 ft | 453 kts | 28° |
| 2026-05-06 16:30 | 46.12360 | -2.51904 | 35995 ft | 453 kts | 28° |
| 2026-05-06 16:30 | 46.18787 | -2.46733 | 36001 ft | 451 kts | 21° |
| 2026-05-06 16:31 | 46.24543 | -2.43126 | 35999 ft | 451 kts | 21° |
| 2026-05-06 16:31 | 46.30292 | -2.39524 | 35998 ft | 450 kts | 22° |
| 2026-05-06 16:32 | 46.36036 | -2.35906 | 35995 ft | 450 kts | 22° |
| 2026-05-06 16:32 | 46.41776 | -2.32286 | 35987 ft | 450 kts | 22° |
| 2026-05-06 16:33 | 46.47515 | -2.28652 | 35979 ft | 450 kts | 22° |
| 2026-05-06 16:34 | 46.56090 | -2.23204 | 35979 ft | 451 kts | 22° |
| 2026-05-06 16:34 | 46.61835 | -2.19542 | 35982 ft | 451 kts | 22° |
| 2026-05-06 16:35 | 46.67574 | -2.15872 | 35984 ft | 450 kts | 22° |
| 2026-05-06 16:35 | 46.73309 | -2.12196 | 35982 ft | 450 kts | 22° |
| 2026-05-06 16:36 | 46.79043 | -2.08523 | 35970 ft | 450 kts | 22° |
| 2026-05-06 16:36 | 46.84778 | -2.04842 | 35969 ft | 450 kts | 22° |
| 2026-05-06 16:37 | 46.90505 | -2.01149 | 35974 ft | 450 kts | 22° |
| 2026-05-06 16:37 | 46.96235 | -1.97449 | 35962 ft | 450 kts | 22° |
| 2026-05-06 16:38 | 47.01962 | -1.93745 | 35966 ft | 450 kts | 22° |
| 2026-05-06 16:38 | 47.07686 | -1.90033 | 35970 ft | 450 kts | 22° |
| 2026-05-06 16:39 | 47.13408 | -1.86309 | 35959 ft | 450 kts | 22° |
| 2026-05-06 16:39 | 47.18738 | -1.81481 | 35962 ft | 452 kts | 35° |
| 2026-05-06 16:40 | 47.23764 | -1.75920 | 35958 ft | 452 kts | 35° |
| 2026-05-06 16:40 | 47.28793 | -1.70357 | 35959 ft | 452 kts | 35° |
| 2026-05-06 16:41 | 47.33747 | -1.64758 | 35963 ft | 453 kts | 40° |
| 2026-05-06 16:41 | 47.37900 | -1.57762 | 35973 ft | 455 kts | 51° |
| 2026-05-06 16:42 | 47.41790 | -1.50411 | 35969 ft | 455 kts | 50° |
| 2026-05-06 16:42 | 47.45700 | -1.43053 | 35966 ft | 455 kts | 50° |
| 2026-05-06 16:43 | 47.49601 | -1.35676 | 35963 ft | 455 kts | 51° |
| 2026-05-06 16:43 | 47.53490 | -1.28285 | 35967 ft | 455 kts | 51° |
| 2026-05-06 16:44 | 47.57375 | -1.20878 | 35973 ft | 455 kts | 51° |
| 2026-05-06 16:44 | 47.61253 | -1.13448 | 35977 ft | 456 kts | 51° |
| 2026-05-06 16:45 | 47.65126 | -1.06015 | 35976 ft | 456 kts | 51° |
| 2026-05-06 16:45 | 47.68999 | -0.98572 | 35981 ft | 456 kts | 51° |
| 2026-05-06 16:46 | 47.72866 | -0.91109 | 35983 ft | 456 kts | 51° |
| 2026-05-06 16:46 | 47.76729 | -0.83644 | 35986 ft | 456 kts | 51° |
| 2026-05-06 16:47 | 47.80591 | -0.76165 | 35995 ft | 456 kts | 51° |
| 2026-05-06 16:47 | 47.84450 | -0.68668 | 35993 ft | 456 kts | 51° |
| 2026-05-06 16:48 | 47.88304 | -0.61161 | 35991 ft | 456 kts | 51° |
| 2026-05-06 16:48 | 47.92152 | -0.53644 | 35988 ft | 456 kts | 51° |
| 2026-05-06 16:49 | 47.95990 | -0.46119 | 35987 ft | 456 kts | 52° |
| 2026-05-06 16:49 | 47.99821 | -0.38577 | 35989 ft | 456 kts | 52° |
| 2026-05-06 16:50 | 48.03652 | -0.31021 | 35992 ft | 456 kts | 52° |
| 2026-05-06 16:50 | 48.07479 | -0.23468 | 35992 ft | 456 kts | 51° |
| 2026-05-06 16:51 | 48.11362 | -0.15955 | 35993 ft | 456 kts | 51° |
| 2026-05-06 16:51 | 48.15244 | -0.08518 | 35995 ft | 456 kts | 51° |
| 2026-05-06 16:52 | 48.19141 | -0.01015 | 36001 ft | 456 kts | 51° |
| 2026-05-06 16:52 | 48.23024 | 0.06504 | 36003 ft | 456 kts | 51° |
| 2026-05-06 16:53 | 48.26240 | 0.12775 | 35998 ft | 456 kts | 51° |
| 2026-05-06 16:53 | 48.30105 | 0.20319 | 35984 ft | 456 kts | 51° |
| 2026-05-06 16:54 | 48.33972 | 0.27870 | 35981 ft | 456 kts | 51° |
| 2026-05-06 16:54 | 48.37828 | 0.35436 | 35976 ft | 456 kts | 51° |
| 2026-05-06 16:55 | 48.41688 | 0.43001 | 35971 ft | 456 kts | 51° |
| 2026-05-06 16:55 | 48.45576 | 0.50542 | 35964 ft | 456 kts | 51° |
| 2026-05-06 16:56 | 48.49466 | 0.58108 | 35958 ft | 456 kts | 51° |
| 2026-05-06 16:56 | 48.53710 | 0.65172 | 35960 ft | 454 kts | 38° |
| 2026-05-06 16:57 | 48.58738 | 0.70923 | 35955 ft | 454 kts | 36° |
| 2026-05-06 16:57 | 48.63788 | 0.76661 | 35956 ft | 454 kts | 36° |
| 2026-05-06 16:58 | 48.68826 | 0.82430 | 35959 ft | 454 kts | 36° |
| 2026-05-06 16:58 | 48.73862 | 0.88211 | 35961 ft | 454 kts | 36° |
| 2026-05-06 16:59 | 48.78908 | 0.93996 | 35955 ft | 455 kts | 36° |
| 2026-05-06 16:59 | 48.83954 | 0.99796 | 35953 ft | 455 kts | 36° |
| 2026-05-06 17:00 | 48.88987 | 1.05617 | 35945 ft | 455 kts | 36° |
| 2026-05-06 17:00 | 48.94022 | 1.11454 | 35949 ft | 455 kts | 36° |
| 2026-05-06 17:01 | 48.99059 | 1.17298 | 35953 ft | 455 kts | 36° |
| 2026-05-06 17:01 | 49.04013 | 1.23287 | 35946 ft | 456 kts | 43° |
| 2026-05-06 17:02 | 49.08621 | 1.29912 | 35790 ft | 456 kts | 45° |
| 2026-05-06 17:02 | 49.10929 | 1.33236 | 35939 ft | 457 kts | 46° |
| 2026-05-06 17:02 | 49.13247 | 1.36586 | 35949 ft | 461 kts | 46° |
| 2026-05-06 17:03 | 49.17950 | 1.43394 | 35951 ft | 469 kts | 46° |
| 2026-05-06 17:03 | 49.22692 | 1.50257 | 35960 ft | 470 kts | 46° |
| 2026-05-06 17:04 | 49.27406 | 1.57108 | 35963 ft | 470 kts | 46° |
| 2026-05-06 17:04 | 49.32152 | 1.64016 | 35953 ft | 471 kts | 45° |
| 2026-05-06 17:05 | 49.36918 | 1.70983 | 35950 ft | 470 kts | 46° |
| 2026-05-06 17:05 | 49.41609 | 1.77882 | 35943 ft | 470 kts | 46° |
| 2026-05-06 17:06 | 49.46366 | 1.84886 | 35932 ft | 471 kts | 46° |
| 2026-05-06 17:06 | 49.51066 | 1.91824 | 35924 ft | 472 kts | 45° |
| 2026-05-06 17:07 | 49.55792 | 1.98819 | 35945 ft | 471 kts | 45° |
| 2026-05-06 17:07 | 49.60515 | 2.05818 | 35952 ft | 471 kts | 45° |
| 2026-05-06 17:08 | 49.65226 | 2.12834 | 35959 ft | 471 kts | 45° |
| 2026-05-06 17:08 | 49.69932 | 2.19854 | 35953 ft | 470 kts | 45° |
| 2026-05-06 17:09 | 49.74637 | 2.26887 | 35940 ft | 470 kts | 45° |
| 2026-05-06 17:09 | 49.79334 | 2.33922 | 35936 ft | 470 kts | 46° |
| 2026-05-06 17:10 | 49.84021 | 2.40983 | 35933 ft | 470 kts | 46° |
| 2026-05-06 17:10 | 49.88708 | 2.48060 | 35934 ft | 470 kts | 46° |
| 2026-05-06 17:11 | 49.93387 | 2.55145 | 35927 ft | 470 kts | 46° |
| 2026-05-06 17:11 | 49.98065 | 2.62238 | 35918 ft | 470 kts | 45° |
| 2026-05-06 17:12 | 50.02743 | 2.69352 | 35921 ft | 471 kts | 45° |
| 2026-05-06 17:12 | 50.07426 | 2.76492 | 35908 ft | 471 kts | 46° |
| 2026-05-06 17:13 | 50.12107 | 2.83668 | 35690 ft | 474 kts | 46° |
| 2026-05-06 17:13 | 50.14473 | 2.87305 | 34643 ft | 481 kts | 46° |
| 2026-05-06 17:13 | 50.16859 | 2.90973 | 33747 ft | 482 kts | 46° |
| 2026-05-06 17:13 | 50.19256 | 2.94662 | 32660 ft | 484 kts | 46° |
| 2026-05-06 17:14 | 50.21649 | 2.98354 | 31674 ft | 484 kts | 46° |
| 2026-05-06 17:14 | 50.24043 | 3.02050 | 30658 ft | 483 kts | 45° |
| 2026-05-06 17:14 | 50.26401 | 3.05694 | 29564 ft | 483 kts | 45° |
| 2026-05-06 17:14 | 50.28818 | 3.09436 | 28226 ft | 485 kts | 45° |
| 2026-05-06 17:15 | 50.31175 | 3.13093 | 27091 ft | 483 kts | 46° |
| 2026-05-06 17:15 | 50.33554 | 3.16792 | 26145 ft | 479 kts | 46° |
| 2026-05-06 17:15 | 50.35892 | 3.20424 | 25505 ft | 469 kts | 46° |
| 2026-05-06 17:15 | 50.38190 | 3.24004 | 24738 ft | 464 kts | 46° |
| 2026-05-06 17:16 | 50.40465 | 3.27558 | 24018 ft | 458 kts | 46° |
| 2026-05-06 17:16 | 50.42709 | 3.31066 | 23265 ft | 454 kts | 46° |
| 2026-05-06 17:16 | 50.44935 | 3.34545 | 22539 ft | 448 kts | 46° |
| 2026-05-06 17:16 | 50.47126 | 3.37974 | 21883 ft | 442 kts | 46° |
| 2026-05-06 17:17 | 50.49290 | 3.41363 | 21252 ft | 436 kts | 47° |
| 2026-05-06 17:17 | 50.51421 | 3.44712 | 20623 ft | 431 kts | 47° |
| 2026-05-06 17:17 | 50.53529 | 3.48027 | 20026 ft | 426 kts | 46° |
| 2026-05-06 17:17 | 50.55789 | 3.51016 | 19457 ft | 423 kts | 36° |
| 2026-05-06 17:18 | 50.58193 | 3.53645 | 18885 ft | 419 kts | 36° |
| 2026-05-06 17:18 | 50.60575 | 3.56248 | 18356 ft | 414 kts | 36° |
| 2026-05-06 17:18 | 50.62929 | 3.58827 | 17778 ft | 410 kts | 36° |
| 2026-05-06 17:18 | 50.65255 | 3.61382 | 17280 ft | 404 kts | 36° |
| 2026-05-06 17:19 | 50.67543 | 3.63903 | 16779 ft | 399 kts | 36° |
| 2026-05-06 17:19 | 50.69805 | 3.66404 | 16275 ft | 395 kts | 36° |
| 2026-05-06 17:19 | 50.72039 | 3.68880 | 15774 ft | 390 kts | 36° |
| 2026-05-06 17:19 | 50.74249 | 3.71327 | 15258 ft | 387 kts | 36° |
| 2026-05-06 17:20 | 50.76445 | 3.73754 | 14742 ft | 383 kts | 35° |
| 2026-05-06 17:20 | 50.78623 | 3.76170 | 14196 ft | 381 kts | 35° |
| 2026-05-06 17:20 | 50.80779 | 3.78572 | 13653 ft | 378 kts | 35° |
| 2026-05-06 17:20 | 50.82919 | 3.80965 | 13057 ft | 375 kts | 35° |
| 2026-05-06 17:21 | 50.85040 | 3.83335 | 12488 ft | 371 kts | 35° |
| 2026-05-06 17:21 | 50.87044 | 3.85873 | 11917 ft | 368 kts | 44° |
| 2026-05-06 17:21 | 50.88692 | 3.88951 | 11324 ft | 366 kts | 55° |
| 2026-05-06 17:21 | 50.90026 | 3.92363 | 10795 ft | 362 kts | 58° |
| 2026-05-06 17:22 | 50.91223 | 3.95762 | 10661 ft | 347 kts | 65° |
| 2026-05-06 17:22 | 50.91910 | 3.99289 | 10540 ft | 333 kts | 79° |
| 2026-05-06 17:22 | 50.92075 | 4.02919 | 10412 ft | 321 kts | 92° |
| 2026-05-06 17:22 | 50.91767 | 4.06307 | 10290 ft | 310 kts | 101° |
| 2026-05-06 17:23 | 50.91194 | 4.09529 | 10150 ft | 300 kts | 113° |
| 2026-05-06 17:23 | 50.90082 | 4.12277 | 10009 ft | 295 kts | 131° |
| 2026-05-06 17:23 | 50.88515 | 4.14337 | 9879 ft | 294 kts | 149° |
| 2026-05-06 17:23 | 50.86615 | 4.15580 | 9360 ft | 298 kts | 166° |
| 2026-05-06 17:24 | 50.84624 | 4.16329 | 8815 ft | 291 kts | 166° |
| 2026-05-06 17:24 | 50.82667 | 4.17082 | 8302 ft | 289 kts | 166° |
| 2026-05-06 17:24 | 50.80721 | 4.17845 | 7815 ft | 286 kts | 165° |
| 2026-05-06 17:24 | 50.78787 | 4.18608 | 7327 ft | 287 kts | 165° |
| 2026-05-06 17:25 | 50.76856 | 4.19370 | 6838 ft | 284 kts | 165° |
| 2026-05-06 17:25 | 50.74949 | 4.20120 | 6365 ft | 283 kts | 165° |
| 2026-05-06 17:25 | 50.73039 | 4.20866 | 6024 ft | 278 kts | 165° |
| 2026-05-06 17:25 | 50.71209 | 4.21625 | 5888 ft | 265 kts | 157° |
| 2026-05-06 17:26 | 50.69763 | 4.23195 | 5750 ft | 246 kts | 126° |
| 2026-05-06 17:26 | 50.69069 | 4.25559 | 5460 ft | 237 kts | 96° |
| 2026-05-06 17:26 | 50.69217 | 4.28129 | 5037 ft | 235 kts | 73° |
| 2026-05-06 17:26 | 50.69631 | 4.30596 | 4770 ft | 230 kts | 74° |
| 2026-05-06 17:27 | 50.70019 | 4.33032 | 4265 ft | 229 kts | 75° |
| 2026-05-06 17:27 | 50.70401 | 4.35476 | 3946 ft | 228 kts | 74° |
| 2026-05-06 17:27 | 50.70772 | 4.37866 | 3786 ft | 220 kts | 74° |
| 2026-05-06 17:27 | 50.71282 | 4.40043 | 3686 ft | 206 kts | 58° |
| 2026-05-06 17:28 | 50.72173 | 4.41745 | 3527 ft | 198 kts | 39° |
| 2026-05-06 17:28 | 50.73331 | 4.42850 | 3350 ft | 192 kts | 21° |
| 2026-05-06 17:28 | 50.74598 | 4.43419 | 3087 ft | 187 kts | 15° |
| 2026-05-06 17:28 | 50.75822 | 4.43911 | 2829 ft | 175 kts | 15° |
| 2026-05-06 17:29 | 50.76961 | 4.44372 | 2602 ft | 163 kts | 15° |
| 2026-05-06 17:29 | 50.78015 | 4.44798 | 2393 ft | 148 kts | 15° |
| 2026-05-06 17:29 | 50.78974 | 4.45188 | 2199 ft | 139 kts | 15° |
| 2026-05-06 17:29 | 50.79894 | 4.45562 | 2012 ft | 136 kts | 15° |
| 2026-05-06 17:30 | 50.80801 | 4.45930 | 1823 ft | 135 kts | 15° |
| 2026-05-06 17:30 | 50.81707 | 4.46294 | 1636 ft | 134 kts | 15° |
| 2026-05-06 17:30 | 50.82610 | 4.46662 | 1480 ft | 133 kts | 15° |
| 2026-05-06 17:30 | 50.83511 | 4.47030 | 1226 ft | 132 kts | 15° |
| 2026-05-06 17:31 | 50.84412 | 4.47397 | 1098 ft | 134 kts | 14° |
| 2026-05-06 17:31 | 50.85313 | 4.47759 | 915 ft | 133 kts | 15° |
| 2026-05-06 17:31 | 50.86203 | 4.48126 | 746 ft | 132 kts | 14° |
| 2026-05-06 17:31 | 50.87101 | 4.48494 | 535 ft | 132 kts | 14° |
| 2026-05-06 17:32 | 50.87990 | 4.48857 | 378 ft | 132 kts | 14° |
| 2026-05-06 17:32 | 50.88875 | 4.49214 | 210 ft | 130 kts | 13° |
| 2026-05-06 17:32 | 50.89641 | 4.49529 | 154 ft | 91 kts | 14° |
| 2026-05-06 17:32 | 50.90104 | 4.49716 | 132 ft | 52 kts | 14° |
| 2026-05-06 17:33 | 50.90394 | 4.49837 | 125 ft | 39 kts | 14° |
| 2026-05-06 17:33 | 50.90652 | 4.49928 | 122 ft | 35 kts | 6° |
| 2026-05-06 17:33 | 50.90837 | 4.49895 | 120 ft | 16 kts | 343° |
| 2026-05-06 17:33 | 50.90865 | 4.49843 | 122 ft | 0 kts | 296° |
| 2026-05-06 17:36 | 50.90865 | 4.49842 | 122 ft | 0 kts | 296° |
| 2026-05-06 17:36 | 50.90844 | 4.49769 | 123 ft | 14 kts | 236° |
| 2026-05-06 17:36 | 50.90747 | 4.49710 | 124 ft | 17 kts | 194° |
| 2026-05-06 17:37 | 50.90613 | 4.49656 | 124 ft | 22 kts | 194° |
| 2026-05-06 17:37 | 50.90473 | 4.49588 | 120 ft | 11 kts | 225° |
| 2026-05-06 17:37 | 50.90447 | 4.49477 | 123 ft | 13 kts | 244° |
| 2026-05-06 17:37 | 50.90399 | 4.49315 | 120 ft | 18 kts | 245° |
| 2026-05-06 17:38 | 50.90406 | 4.49182 | 120 ft | 13 kts | 303° |
| 2026-05-06 17:38 | 50.90437 | 4.49102 | 120 ft | 0 kts | 301° |
| 2026-05-06 17:38 | 50.90437 | 4.49101 | 120 ft | 0 kts | 301° |